createdAt,value
2018-06-14T00:02:25.075Z,95658.00
2018-06-14T00:07:55.737Z,95655.00
2018-06-14T00:13:26.054Z,95659.00
2018-06-14T00:18:55.708Z,95654.00
2018-06-14T00:24:25.826Z,95655.00
2018-06-14T00:29:55.788Z,95650.00
2018-06-14T00:35:25.628Z,95652.00
2018-06-14T00:40:55.393Z,95646.00
2018-06-14T00:46:25.180Z,95659.00
2018-06-14T00:51:55.064Z,95658.00
2018-06-14T00:57:29.565Z,95658.00
2018-06-14T01:02:58.804Z,95661.00
2018-06-14T01:08:28.287Z,95659.00
2018-06-14T01:13:57.475Z,95655.00
2018-06-14T01:19:26.647Z,95656.00
2018-06-14T01:24:56.525Z,95653.00
2018-06-14T01:30:25.767Z,95648.00
2018-06-14T01:35:55.691Z,95652.00
2018-06-14T01:41:25.707Z,95648.00
2018-06-14T01:46:55.456Z,95634.00
2018-06-14T01:52:24.946Z,95633.00
2018-06-14T01:57:54.344Z,95633.00
2018-06-14T02:03:24.559Z,95640.00
2018-06-14T02:08:54.204Z,95641.00
2018-06-14T02:14:24.531Z,95638.00
2018-06-14T02:19:54.100Z,95635.00
2018-06-14T02:25:24.473Z,95628.00
2018-06-14T02:30:53.915Z,95635.00
2018-06-14T02:36:23.673Z,95636.00
2018-06-14T02:42:03.398Z,95631.00
2018-06-14T02:47:32.605Z,95628.00
2018-06-14T02:53:01.897Z,95628.00
2018-06-14T02:58:31.132Z,95627.00
2018-06-14T03:04:00.303Z,95635.00
2018-06-14T03:09:29.604Z,95636.00
2018-06-14T03:14:58.837Z,95635.00
2018-06-14T03:20:28.967Z,95630.00
2018-06-14T03:25:59.644Z,95629.00
2018-06-14T03:31:28.876Z,95616.00
2018-06-14T03:36:58.199Z,95621.00
2018-06-14T03:42:27.426Z,95626.00
2018-06-14T03:47:56.449Z,95628.00
2018-06-14T03:53:25.678Z,95623.00
2018-06-14T03:58:55.002Z,95622.00
2018-06-14T04:04:24.405Z,95627.00
2018-06-14T04:09:54.273Z,95631.00
2018-06-14T04:15:24.993Z,95626.00
2018-06-14T04:20:55.447Z,95627.00
2018-06-14T04:26:24.868Z,95623.00
2018-06-14T04:31:54.603Z,95624.00
2018-06-14T04:37:23.863Z,95622.00
2018-06-14T04:42:54.187Z,95625.00
2018-06-14T04:48:25.172Z,95628.00
2018-06-14T04:53:55.510Z,95635.00
2018-06-14T04:59:25.195Z,95645.00
2018-06-14T05:04:54.455Z,95645.00
2018-06-14T05:10:24.120Z,95652.00
2018-06-14T05:15:54.396Z,95647.00
2018-06-14T05:21:23.883Z,95652.00
2018-06-14T05:26:53.491Z,95653.00
2018-06-14T05:32:23.106Z,95650.00
2018-06-14T05:37:52.557Z,95663.00
2018-06-14T05:43:22.554Z,95651.00
2018-06-14T05:48:53.103Z,95655.00
2018-06-14T05:54:23.896Z,95665.00
2018-06-14T05:59:54.752Z,95675.00
2018-06-14T06:05:24.678Z,95673.00
2018-06-14T06:10:53.961Z,95661.00
2018-06-14T06:16:23.558Z,95663.00
2018-06-14T06:22:00.675Z,95667.00
2018-06-14T06:27:29.896Z,95668.00
2018-06-14T06:32:59.088Z,95675.00
2018-06-14T06:38:28.355Z,95671.00
2018-06-14T06:43:57.549Z,95671.00
2018-06-14T06:49:26.783Z,95667.00
2018-06-14T06:54:56.231Z,95675.00
2018-06-14T07:00:25.897Z,95665.00
2018-06-14T07:06:02.134Z,95666.00
2018-06-14T07:11:31.402Z,95673.00
2018-06-14T07:17:00.613Z,95680.00
2018-06-14T07:22:29.831Z,95687.00
2018-06-14T07:27:59.030Z,95687.00
2018-06-14T07:33:28.276Z,95674.00
2018-06-14T07:38:57.524Z,95676.00
2018-06-14T07:44:26.681Z,95682.00
2018-06-14T07:50:00.801Z,95687.00
2018-06-14T07:55:30.163Z,95684.00
2018-06-14T08:00:59.424Z,95688.00
2018-06-14T08:06:28.716Z,95681.00
2018-06-14T08:11:57.905Z,95680.00
2018-06-14T08:17:27.290Z,95682.00
2018-06-14T08:22:56.544Z,95682.00
2018-06-14T08:28:25.717Z,95676.00
2018-06-14T08:33:55.980Z,95680.00
2018-06-14T08:39:25.229Z,95682.00
2018-06-14T08:44:56.432Z,95678.00
2018-06-14T08:50:25.763Z,95681.00
2018-06-14T08:55:55.516Z,95687.00
2018-06-14T09:01:24.914Z,95678.00
2018-06-14T09:06:54.851Z,95684.00
2018-06-14T09:12:24.837Z,95685.00
2018-06-14T09:17:55.007Z,95692.00
2018-06-14T09:23:26.693Z,95693.00
2018-06-14T09:28:55.726Z,95690.00
2018-06-14T09:34:24.995Z,95694.00
2018-06-14T09:39:54.386Z,95695.00
2018-06-14T09:45:24.248Z,95705.00
2018-06-14T09:50:53.646Z,95695.00
2018-06-14T09:56:25.119Z,95694.00
2018-06-14T10:01:54.719Z,95704.00
2018-06-14T10:07:23.965Z,95699.00
2018-06-14T10:12:53.247Z,95699.00
2018-06-14T10:18:22.763Z,95694.00
2018-06-14T10:23:56.951Z,95699.00
2018-06-14T10:29:26.178Z,95678.00
2018-06-14T10:34:55.542Z,95680.00
2018-06-14T10:40:24.777Z,95679.00
2018-06-14T10:45:54.371Z,95682.00
2018-06-14T10:51:24.422Z,95678.00
2018-06-14T10:56:53.672Z,95674.00
2018-06-14T11:02:23.110Z,95675.00
2018-06-14T11:07:52.485Z,95678.00
2018-06-14T11:13:22.225Z,95679.00
2018-06-14T11:18:51.606Z,95674.00
2018-06-14T11:24:20.994Z,95678.00
2018-06-14T11:29:52.820Z,95666.00
2018-06-14T11:35:23.728Z,95669.00
2018-06-14T11:40:55.829Z,95661.00
2018-06-14T11:46:25.117Z,95655.00
2018-06-14T11:51:54.430Z,95655.00
2018-06-14T11:57:23.656Z,95647.00
2018-06-14T12:02:53.452Z,95649.00
2018-06-14T12:08:23.451Z,95651.00
2018-06-14T12:14:00.976Z,95643.00
2018-06-14T12:19:30.183Z,95648.00
2018-06-14T12:25:00.774Z,95639.00
2018-06-14T12:30:30.069Z,95643.00
2018-06-14T12:35:59.316Z,95645.00
2018-06-14T12:41:28.533Z,95644.00
2018-06-14T12:46:57.510Z,95630.00
2018-06-14T12:52:33.224Z,95639.00
2018-06-14T12:58:02.457Z,95631.00
2018-06-14T13:03:31.939Z,95621.00
2018-06-14T13:09:01.271Z,95622.00
2018-06-14T13:14:30.596Z,95627.00
2018-06-14T13:19:59.771Z,95633.00
2018-06-14T13:25:30.106Z,95629.00
2018-06-14T13:30:59.397Z,95626.00
2018-06-14T13:36:29.052Z,95620.00
2018-06-14T13:41:58.146Z,95619.00
2018-06-14T13:47:27.349Z,95618.00
2018-06-14T13:52:56.626Z,95605.00
2018-06-14T13:58:25.902Z,95607.00
2018-06-14T14:03:56.003Z,95599.00
2018-06-14T14:09:25.334Z,95582.00
2018-06-14T14:14:54.604Z,95592.00
2018-06-14T14:20:24.906Z,95595.00
2018-06-14T14:25:54.103Z,95588.00
2018-06-14T14:31:23.475Z,95591.00
2018-06-14T14:36:54.905Z,95587.00
2018-06-14T14:42:24.208Z,95576.00
2018-06-14T14:47:54.073Z,95572.00
2018-06-14T14:53:23.388Z,95560.00
2018-06-14T14:58:55.733Z,95560.00
2018-06-14T15:04:26.410Z,95554.00
2018-06-14T15:09:55.801Z,95567.00
2018-06-14T15:15:25.224Z,95517.00
2018-06-14T15:20:55.137Z,95566.00
2018-06-14T15:26:24.683Z,95569.00
2018-06-14T15:31:55.011Z,95573.00
2018-06-14T15:37:24.286Z,95569.00
2018-06-14T15:42:53.666Z,95570.00
2018-06-14T15:48:23.841Z,95566.00
2018-06-14T15:53:54.197Z,95569.00
2018-06-14T15:59:27.467Z,95566.00
2018-06-14T16:05:09.007Z,95560.00
2018-06-14T16:10:38.312Z,95568.00
2018-06-14T16:16:07.701Z,95574.00
2018-06-14T16:21:37.036Z,95569.00
2018-06-14T16:27:06.350Z,95568.00
2018-06-14T16:32:35.676Z,95574.00
2018-06-14T16:38:06.041Z,95574.00
2018-06-14T16:43:35.425Z,95570.00
2018-06-14T16:49:05.451Z,95572.00
2018-06-14T16:54:35.867Z,95575.00
2018-06-14T17:00:06.076Z,95574.00
2018-06-14T17:05:35.426Z,95571.00
2018-06-14T17:11:04.738Z,95572.00
2018-06-14T17:16:34.983Z,95566.00
2018-06-14T17:22:04.218Z,95571.00
2018-06-14T17:27:33.455Z,95575.00
2018-06-14T17:33:02.783Z,95571.00
2018-06-14T17:38:32.137Z,95569.00
2018-06-14T17:44:01.679Z,95575.00
2018-06-14T17:49:30.624Z,95580.00
2018-06-14T17:54:59.951Z,95580.00
2018-06-14T18:00:29.197Z,95588.00
2018-06-14T18:05:58.501Z,95585.00
2018-06-14T18:11:27.857Z,95590.00
2018-06-14T18:16:57.181Z,95590.00
2018-06-14T18:22:26.516Z,95592.00
2018-06-14T18:27:58.341Z,95595.00
2018-06-14T18:33:27.787Z,95597.00
2018-06-14T18:38:58.459Z,95611.00
2018-06-14T18:44:27.710Z,95611.00
2018-06-14T18:49:57.388Z,95619.00
2018-06-14T18:55:30.200Z,95619.00
2018-06-14T19:01:07.393Z,95620.00
2018-06-14T19:06:36.659Z,95623.00
2018-06-14T19:12:05.970Z,95637.00
2018-06-14T19:17:36.513Z,95638.00
2018-06-14T19:23:05.709Z,95647.00
2018-06-14T19:28:35.018Z,95648.00
2018-06-14T19:34:04.054Z,95662.00
2018-06-14T19:39:33.394Z,95677.00
2018-06-14T19:45:02.724Z,95677.00
2018-06-14T19:50:31.978Z,95689.00
2018-06-14T19:56:02.225Z,95691.00
2018-06-14T20:01:31.530Z,95695.00
2018-06-14T20:07:00.763Z,95709.00
2018-06-14T20:12:30.026Z,95721.00
2018-06-14T20:18:00.088Z,95724.00
2018-06-14T20:23:29.465Z,95727.00
2018-06-14T20:28:58.663Z,95734.00
2018-06-14T20:34:27.900Z,95745.00
2018-06-14T20:39:57.099Z,95754.00
2018-06-14T20:45:26.496Z,95758.00
2018-06-14T20:50:55.802Z,95768.00
2018-06-14T20:56:25.168Z,95758.00
2018-06-14T21:01:54.698Z,95768.00
2018-06-14T21:07:24.531Z,95766.00
2018-06-14T21:12:54.816Z,95766.00
2018-06-14T21:18:24.318Z,95764.00
2018-06-14T21:23:54.187Z,95767.00
2018-06-14T21:29:24.585Z,95770.00
2018-06-14T21:34:53.819Z,95776.00
2018-06-14T21:40:23.647Z,95768.00
2018-06-14T21:45:53.354Z,95773.00
2018-06-14T21:51:23.167Z,95776.00
2018-06-14T21:56:52.877Z,95776.00
2018-06-14T22:02:22.661Z,95774.00
2018-06-14T22:07:53.012Z,95771.00
2018-06-14T22:13:22.280Z,95764.00
2018-06-14T22:18:51.852Z,95769.00
2018-06-14T22:24:21.487Z,95776.00
2018-06-14T22:29:51.314Z,95773.00
2018-06-14T22:35:29.807Z,95760.00
2018-06-14T22:40:59.032Z,95761.00
2018-06-14T22:46:28.260Z,95761.00
2018-06-14T22:52:51.404Z,95755.00
2018-06-14T22:58:21.470Z,95756.00
2018-06-14T23:03:51.066Z,95750.00
2018-06-14T23:10:41.116Z,95753.00
2018-06-14T23:16:15.831Z,95760.00
2018-06-14T23:21:48.147Z,95753.00
2018-06-14T23:27:18.881Z,95743.00
2018-06-14T23:32:49.681Z,95748.00
2018-06-14T23:38:19.868Z,95745.00
2018-06-14T23:43:49.677Z,95746.00
2018-06-14T23:49:19.962Z,95740.00
2018-06-14T23:54:50.448Z,95738.00
